Wednesday, September 17, 2014
05:39 UTC
  |  Log In   |  Register Free
Airport Search:

Bishop International Airport
(KFNT)

FAA data valid effective July 24, 2014 until September 18, 2014 (unless otherwise noted).

 
 
 
 
 
 
 
 
 
 
 
 
 
 

Current Aviation Weather for Bishop International Airport (KFNT)

The most recent METAR observation for KFNT was updated at: 0536
METAR Summary (Translated METAR)
KFNT
170453Z 00000KT 10SM CLR 08/05 A3008 RMK AO2 SLP187 T00780050 401940078
KRNP
170354Z AUTO 00000KT 10SM CLR 07/07 A3008 RMK AO2 T00720068
(17.4 nm NW from KFNT)
KOZW
170355Z AUTO 00000KT 10SM CLR 08/06 A3008 RMK AO2 T00770057
(22.7 nm SW from KFNT)
TAF Summary (Translated TAF)
KFNT
170520Z 1706/1806 VRB03KT P6SM SKC FM171600 26009KT P6SM SCT040 SCT250 FM172200 27008KT P6SM SCT050 BKN250 FM180200 VRB03KT P6SM FEW050
  Airport Weather Conditions for KFNT

 Current Weather at FNT
46° F
Fair
North winds at 0.0 mph
FNT NOAA Radar

Pressure: 30.08 in
Humidity: 83%
Wind: Calm
Dew Point: 41.0°F
Visibility: 10.00 mi


Airport Weather Forecast for KFNT

Translated METAR and TAF for KFNT
Translated METAR for KFNT (0533 UTC 17 September 2014)
found at http://aviationweather.gov/adds/metars/
 
METAR text: KFNT 170453Z 00000KT 10SM CLR 08/05 A3008 RMK AO2 SLP187 T00780050 401940078
Conditions at: KFNT (FLINT , MI, US) observed 0453 UTC 17 September 2014
Temperature: 7.8°C (46°F)
Dewpoint: 5.0°C (41°F) [RH = 82%]
Pressure (altimeter): 30.08 inches Hg (1018.7 mb)
[Sea-level pressure: 1018.7 mb]
Winds: calm
Visibility: 10 or more miles (16+ km)
Ceiling: at least 12,000 feet AGL
Clouds: sky clear below 12,000 feet AGL
Weather: no significant weather observed at this time
Translated TAF for KFNT
Forecast for: KFNT (FLINT , MI, US)
TAF Text: KFNT 170520Z 1706/1806 VRB03KT P6SM SKC
Forecast period: 0600 to 1600 UTC 17 September 2014
Forecast type: FROM: standard forecast or significant change
Winds: variable direction winds at 3 MPH (3 knots; 1.6 m/s)
Visibility: 6 or more miles (10+ km)
Clouds: clear skies
Weather: no significant weather forecast for this period
TAF Text: FM171600 26009KT P6SM SCT040 SCT250
Forecast period: 1600 to 2200 UTC 17 September 2014
Forecast type: FROM: standard forecast or significant change
Winds: from the W (260 degrees) at 10 MPH (9 knots; 4.7 m/s)
Visibility: 6 or more miles (10+ km)
Clouds: scattered clouds at 4000 feet AGL
scattered clouds at 25000 feet AGL
Weather: no significant weather forecast for this period
TAF Text: FM172200 27008KT P6SM SCT050 BKN250
Forecast period: 2200 UTC 17 September 2014 to 0200 UTC 18 September 2014
Forecast type: FROM: standard forecast or significant change
Winds: from the W (270 degrees) at 9 MPH (8 knots; 4.2 m/s)
Visibility: 6 or more miles (10+ km)
Ceiling: 25000 feet AGL
Clouds: scattered clouds at 5000 feet AGL
broken clouds at 25000 feet AGL
Weather: no significant weather forecast for this period
TAF Text: FM180200 VRB03KT P6SM FEW050
Forecast period: 0200 to 0600 UTC 18 September 2014
Forecast type: FROM: standard forecast or significant change
Winds: variable direction winds at 3 MPH (3 knots; 1.6 m/s)
Visibility: 6 or more miles (10+ km)
Clouds: few clouds at 5000 feet AGL
Weather: no significant weather forecast for this period

Find All Airport Services Find A Hotel Find A Rental Car Find A Golf Course Find A Restaurant $100 Hamburger



FBO's on the Field
FBO Company Facility Photos Services Transportation Aviation Fuel Prices: Prices include tax
Catering Weather Repair Courtesy Rental Type 100LL JetA JetA+ MOGAS 8087
 
Avflight Flint

This FBO has not yet been rated
FS:Avfuel
Last Updated: Sep-15
Login to update fuel prices
SS:
Contact Avflight FlintMore FBO Information
 
Add another FBO Facility Photos Catering Weather Repair Courtesy Rental Type 100LL JetA JetA+ MOGAS 8087
Services Transportation Aviation Fuel Prices: Prices include tax


model-print
model-print
model-print
model-print